Time;durP1;ratioP1;P1;durP2;ratioP2;P2;SDS_P1;SDS_P2;PMS_P1;PMS_P2;Temp;Humidity;BMP_temperature;BMP_pressure;BME280_temperature;BME280_humidity;BME280_pressure;Samples;Min_cycle;Max_cycle;Signal;HPM_P1;HPM_P2
2021/04/24 00:00:55;;;;;;;15.23;5.60;;;8.20;99.90;;;;;;4991777;28;20029;-71
2021/04/24 00:03:23;;;;;;;11.47;4.10;;;8.20;99.90;;;;;;4992214;28;20068;-70
2021/04/24 00:05:49;;;;;;;8.20;2.67;;;8.10;99.90;;;;;;4992070;28;20594;-70
2021/04/24 00:08:20;;;;;;;7.83;2.60;;;8.10;99.90;;;;;;4993217;28;20038;-70
2021/04/24 00:10:47;;;;;;;10.60;4.10;;;8.10;99.90;;;;;;4992831;28;20030;-71
2021/04/24 00:13:14;;;;;;;8.17;2.80;;;8.10;99.90;;;;;;4984556;28;20415;-71
2021/04/24 00:15:41;;;;;;;12.40;4.10;;;8.10;99.90;;;;;;4994256;28;20038;-70
2021/04/24 00:18:08;;;;;;;11.73;4.73;;;8.10;99.90;;;;;;4994270;28;20034;-70
2021/04/24 00:20:34;;;;;;;13.40;3.53;;;8.10;99.90;;;;;;4994861;28;20034;-70
2021/04/24 00:23:02;;;;;;;19.03;6.60;;;8.00;99.90;;;;;;4994912;28;20032;-70
2021/04/24 00:25:30;;;;;;;20.23;6.13;;;8.00;99.90;;;;;;4976621;28;20085;-70
2021/04/24 00:27:56;;;;;;;7.03;3.50;;;8.00;99.90;;;;;;4994396;28;20513;-71
2021/04/24 00:30:22;;;;;;;15.73;4.47;;;8.00;99.90;;;;;;4993749;28;20025;-70
2021/04/24 00:32:50;;;;;;;9.37;2.53;;;8.00;99.90;;;;;;4993175;28;20053;-71
2021/04/24 00:35:18;;;;;;;13.33;4.73;;;7.90;99.90;;;;;;4994169;28;20034;-71
2021/04/24 00:37:44;;;;;;;10.60;4.10;;;7.90;99.90;;;;;;4994794;28;20041;-71
2021/04/24 00:40:13;;;;;;;12.83;3.00;;;7.90;99.90;;;;;;4993236;28;20116;-71
2021/04/24 00:42:39;;;;;;;8.23;3.10;;;7.90;99.90;;;;;;4991149;28;20080;-70
2021/04/24 00:45:08;;;;;;;9.47;3.17;;;7.90;99.90;;;;;;4981026;28;20133;-70
2021/04/24 00:47:36;;;;;;;3.83;1.60;;;7.90;99.90;;;;;;4957111;28;20543;-71
2021/04/24 00:50:05;;;;;;;4.60;1.83;;;7.90;99.90;;;;;;4990417;28;20034;-70
2021/04/24 00:52:33;;;;;;;5.70;2.60;;;7.90;99.90;;;;;;4990852;28;20069;-70
2021/04/24 00:55:02;;;;;;;11.13;4.67;;;7.90;99.90;;;;;;4988928;28;20104;-71
2021/04/24 00:57:31;;;;;;;9.97;4.13;;;7.90;99.90;;;;;;4991018;28;20042;-70
2021/04/24 01:00:02;;;;;;;19.30;7.13;;;8.00;99.90;;;;;;4973165;28;20034;-70
2021/04/24 01:02:27;;;;;;;22.90;7.10;;;8.10;99.90;;;;;;4990592;28;20038;-70
2021/04/24 01:04:53;;;;;;;14.23;5.70;;;8.00;99.90;;;;;;4988015;28;20045;-70
2021/04/24 01:07:19;;;;;;;8.73;3.43;;;8.10;99.90;;;;;;4990936;28;20049;-70
2021/04/24 01:09:44;;;;;;;6.47;2.70;;;8.10;99.90;;;;;;4989718;28;20034;-71
2021/04/24 01:12:13;;;;;;;8.97;4.30;;;8.10;99.90;;;;;;4990141;28;21901;-70
2021/04/24 01:14:38;;;;;;;9.07;4.47;;;8.10;99.90;;;;;;4989086;28;20113;-70
2021/04/24 01:17:05;;;;;;;3.70;2.00;;;8.00;99.90;;;;;;4989519;28;20034;-70
2021/04/24 01:19:31;;;;;;;6.00;1.87;;;8.00;99.90;;;;;;4989246;28;20031;-70
2021/04/24 01:22:08;;;;;;;14.47;4.83;;;7.90;99.90;;;;;;4990387;28;20701;-71
2021/04/24 01:24:34;;;;;;;7.27;2.30;;;7.80;99.90;;;;;;4989533;28;20048;-70
2021/04/24 01:27:00;;;;;;;9.13;3.57;;;7.80;99.90;;;;;;4989204;28;20031;-70
2021/04/24 01:29:28;;;;;;;10.60;3.83;;;7.80;99.90;;;;;;4989904;28;20041;-71
2021/04/24 01:31:54;;;;;;;12.43;4.27;;;7.70;99.90;;;;;;4971454;28;20685;-71
2021/04/24 01:34:19;;;;;;;11.43;4.43;;;7.70;99.90;;;;;;4989527;28;20034;-71
2021/04/24 01:36:45;;;;;;;17.90;5.70;;;7.60;99.90;;;;;;4972820;28;20046;-71
2021/04/24 01:39:13;;;;;;;10.20;3.27;;;7.50;99.90;;;;;;4989701;28;20125;-71
2021/04/24 01:41:41;;;;;;;8.53;3.67;;;7.50;99.90;;;;;;4989262;28;20075;-71
2021/04/24 01:44:07;;;;;;;12.47;4.77;;;7.40;99.90;;;;;;4989366;28;20038;-71
2021/04/24 01:46:33;;;;;;;21.57;6.03;;;7.30;99.90;;;;;;4990489;28;20092;-71
2021/04/24 01:48:58;;;;;;;6.37;2.67;;;7.30;99.90;;;;;;4993669;28;20069;-71
2021/04/24 01:51:24;;;;;;;9.90;3.33;;;7.30;99.90;;;;;;4993690;28;20731;-71
2021/04/24 01:53:52;;;;;;;16.03;6.17;;;7.20;99.90;;;;;;4992716;28;20030;-71
2021/04/24 01:56:17;;;;;;;11.00;3.37;;;7.20;99.90;;;;;;4993754;28;20034;-71
2021/04/24 01:58:45;;;;;;;9.43;4.03;;;7.20;99.90;;;;;;4992148;28;20038;-71
2021/04/24 02:01:14;;;;;;;14.33;4.50;;;7.20;99.90;;;;;;4992819;28;20041;-71
2021/04/24 02:03:40;;;;;;;8.33;2.50;;;7.20;99.90;;;;;;4993261;28;20510;-72
2021/04/24 02:06:06;;;;;;;6.17;2.27;;;7.20;99.90;;;;;;4992746;28;20056;-71
2021/04/24 02:08:34;;;;;;;15.80;6.30;;;7.10;99.90;;;;;;4975650;28;20046;-71
2021/04/24 02:11:03;;;;;;;9.80;2.90;;;7.10;99.90;;;;;;4993097;28;20033;-70
2021/04/24 02:13:32;;;;;;;12.73;3.03;;;7.10;99.90;;;;;;4993336;28;20125;-71
2021/04/24 02:15:58;;;;;;;13.23;3.47;;;7.10;99.90;;;;;;4992908;28;20389;-71
2021/04/24 02:18:27;;;;;;;16.67;4.80;;;7.10;99.90;;;;;;4976348;28;20121;-70
2021/04/24 02:20:53;;;;;;;9.50;4.20;;;7.00;99.90;;;;;;4975962;28;20049;-71
2021/04/24 02:23:20;;;;;;;6.23;2.70;;;7.00;99.90;;;;;;4979618;28;20133;-71
2021/04/24 02:25:46;;;;;;;11.20;3.90;;;7.00;99.90;;;;;;4979421;28;20041;-71
2021/04/24 02:28:15;;;;;;;6.77;2.73;;;7.00;99.90;;;;;;4992643;28;20030;-71
2021/04/24 02:30:42;;;;;;;3.90;1.83;;;7.00;99.90;;;;;;4993475;28;20029;-70
2021/04/24 02:33:09;;;;;;;10.23;2.67;;;7.00;99.90;;;;;;4976391;28;20037;-71
2021/04/24 02:35:44;;;;;;;19.73;4.57;;;6.90;99.90;;;;;;4975623;28;20041;-71
2021/04/24 02:38:18;;;;;;;13.63;4.43;;;6.90;99.90;;;;;;4973197;28;20062;-70
2021/04/24 02:40:46;;;;;;;7.43;2.80;;;6.90;99.90;;;;;;4993355;28;20052;-71
2021/04/24 02:43:14;;;;;;;8.60;3.07;;;6.90;99.90;;;;;;4992036;28;20049;-71
2021/04/24 02:45:40;;;;;;;7.27;2.83;;;6.90;99.90;;;;;;4980581;28;20050;-70
2021/04/24 02:48:06;;;;;;;7.40;3.43;;;6.90;99.90;;;;;;4990551;28;20112;-70
2021/04/24 02:50:34;;;;;;;5.10;2.40;;;6.80;99.90;;;;;;4993213;28;20026;-71
2021/04/24 02:53:00;;;;;;;9.67;3.23;;;6.80;99.90;;;;;;4993194;28;20042;-71
2021/04/24 02:55:26;;;;;;;9.40;3.57;;;6.80;99.90;;;;;;4974339;28;20026;-71
2021/04/24 02:57:55;;;;;;;10.17;3.80;;;6.80;99.90;;;;;;4992505;28;20053;-71
2021/04/24 03:00:22;;;;;;;6.17;3.10;;;6.80;99.90;;;;;;4992796;28;22309;-71
2021/04/24 03:03:07;;;;;;;4.87;2.07;;;6.80;99.90;;;;;;4992663;28;20190;-71
2021/04/24 03:05:34;;;;;;;12.40;3.47;;;6.80;99.90;;;;;;4992164;28;20169;-70
2021/04/24 03:08:04;;;;;;;10.83;3.60;;;6.80;99.90;;;;;;4974432;28;20065;-71
2021/04/24 03:10:35;;;;;;;7.20;2.53;;;6.70;99.90;;;;;;4991103;28;20105;-71
2021/04/24 03:13:02;;;;;;;8.23;2.83;;;6.70;99.90;;;;;;4979060;28;20176;-71
2021/04/24 03:15:28;;;;;;;11.87;3.23;;;6.70;99.90;;;;;;4992034;28;20289;-71
2021/04/24 03:17:53;;;;;;;10.30;2.73;;;6.70;99.90;;;;;;4983585;28;20053;-71
2021/04/24 03:20:21;;;;;;;14.83;4.17;;;6.70;99.90;;;;;;4975201;28;20042;-71
2021/04/24 03:22:51;;;;;;;6.23;2.03;;;6.60;99.90;;;;;;4993458;28;20030;-71
2021/04/24 03:25:20;;;;;;;11.67;3.87;;;6.60;99.90;;;;;;4978232;28;20038;-71
2021/04/24 03:27:46;;;;;;;12.07;5.00;;;6.60;99.90;;;;;;4977254;28;20207;-71
2021/04/24 03:30:15;;;;;;;12.37;3.00;;;6.60;99.90;;;;;;4990079;28;20667;-70
2021/04/24 03:32:41;;;;;;;9.27;3.87;;;6.70;99.90;;;;;;4974500;28;20030;-71
2021/04/24 03:35:07;;;;;;;3.53;1.23;;;6.70;99.90;;;;;;4974196;28;20053;-71
2021/04/24 03:37:33;;;;;;;6.17;2.33;;;6.70;99.90;;;;;;4991680;28;20065;-71
2021/04/24 03:39:59;;;;;;;6.90;2.47;;;6.70;99.90;;;;;;4991890;28;20479;-71
2021/04/24 03:42:24;;;;;;;6.40;1.23;;;6.70;99.90;;;;;;4991554;28;20056;-71
2021/04/24 03:44:50;;;;;;;6.83;2.60;;;6.70;99.90;;;;;;4990381;28;20447;-71
2021/04/24 03:47:16;;;;;;;5.00;1.70;;;6.60;99.90;;;;;;4991302;28;20042;-71
2021/04/24 03:49:41;;;;;;;6.77;2.70;;;6.70;99.90;;;;;;4991121;28;20034;-71
2021/04/24 03:52:07;;;;;;;4.60;2.20;;;6.70;99.90;;;;;;4991189;28;20076;-71
2021/04/24 03:54:33;;;;;;;4.97;1.80;;;6.70;99.90;;;;;;4991575;28;20355;-71
2021/04/24 03:56:59;;;;;;;4.10;1.73;;;6.70;99.90;;;;;;4990444;28;20381;-71
2021/04/24 03:59:25;;;;;;;7.67;2.50;;;6.70;99.90;;;;;;4991661;28;20046;-70
2021/04/24 04:01:51;;;;;;;6.70;1.80;;;6.70;99.90;;;;;;4991413;28;20046;-70
2021/04/24 04:04:16;;;;;;;5.63;2.07;;;6.70;99.90;;;;;;4973541;28;22016;-71
2021/04/24 04:06:42;;;;;;;5.63;2.17;;;6.60;99.90;;;;;;4989450;28;20233;-71
2021/04/24 04:09:10;;;;;;;9.87;2.00;;;6.60;99.90;;;;;;4990131;28;20029;-70
2021/04/24 04:11:36;;;;;;;4.97;1.50;;;6.50;99.90;;;;;;4991379;28;20038;-71
2021/04/24 04:14:01;;;;;;;8.00;2.80;;;6.50;99.90;;;;;;4973145;28;20034;-71
2021/04/24 04:16:29;;;;;;;4.43;1.80;;;6.50;99.90;;;;;;4977269;28;20038;-71
2021/04/24 04:18:55;;;;;;;6.20;1.47;;;6.50;99.90;;;;;;4991027;28;20117;-71
2021/04/24 04:21:23;;;;;;;4.90;1.80;;;6.50;99.90;;;;;;4990195;28;20060;-71
2021/04/24 04:23:48;;;;;;;8.43;2.97;;;6.40;99.90;;;;;;4992005;28;20496;-71
2021/04/24 04:26:16;;;;;;;8.73;2.87;;;6.40;99.90;;;;;;4991174;28;20300;-71
2021/04/24 04:28:42;;;;;;;8.37;2.17;;;6.30;99.90;;;;;;4989535;28;20272;-71
2021/04/24 04:31:07;;;;;;;8.83;2.70;;;6.30;99.90;;;;;;4989791;28;20056;-70
2021/04/24 04:33:33;;;;;;;3.60;2.03;;;6.30;99.90;;;;;;4991144;28;21033;-71
2021/04/24 04:36:05;;;;;;;5.23;2.00;;;6.30;99.90;;;;;;4972577;28;20037;-71
2021/04/24 04:38:33;;;;;;;3.45;1.50;;;6.30;99.90;;;;;;4990165;28;20334;-70
2021/04/24 04:40:59;;;;;;;3.60;1.23;;;6.30;99.90;;;;;;4990830;28;20112;-71
2021/04/24 04:43:29;;;;;;;8.90;2.27;;;6.30;99.90;;;;;;4989141;28;20323;-70
2021/04/24 04:45:57;;;;;;;3.37;1.30;;;6.30;99.90;;;;;;4989881;28;20038;-71
2021/04/24 04:48:23;;;;;;;5.73;1.77;;;6.30;99.90;;;;;;4990567;28;20365;-71
2021/04/24 04:50:49;;;;;;;5.07;1.80;;;6.40;99.90;;;;;;4990299;28;20094;-70
2021/04/24 04:53:15;;;;;;;7.77;1.67;;;6.40;99.90;;;;;;4990152;28;20036;-71
2021/04/24 04:55:40;;;;;;;4.23;1.50;;;6.50;99.90;;;;;;4990312;28;20281;-70
2021/04/24 04:58:07;;;;;;;2.47;1.50;;;6.50;99.90;;;;;;4990668;28;20128;-72
2021/04/24 05:00:33;;;;;;;7.43;2.80;;;6.50;99.90;;;;;;4973448;28;20120;-70
2021/04/24 05:03:01;;;;;;;3.77;1.23;;;6.60;99.90;;;;;;4972721;28;20121;-70
2021/04/24 05:05:29;;;;;;;4.87;1.97;;;6.60;99.90;;;;;;4990229;28;20121;-70
2021/04/24 05:07:55;;;;;;;8.03;2.83;;;6.60;99.90;;;;;;4972082;28;20617;-70
2021/04/24 05:10:23;;;;;;;5.90;2.83;;;6.70;99.90;;;;;;4976795;28;20044;-70
2021/04/24 05:12:49;;;;;;;10.13;2.60;;;6.70;99.90;;;;;;4990995;28;20050;-70
2021/04/24 05:15:15;;;;;;;5.07;1.77;;;6.70;99.90;;;;;;4990268;28;20037;-70
2021/04/24 05:17:41;;;;;;;5.63;1.60;;;6.80;99.90;;;;;;4976236;28;20038;-70
2021/04/24 05:20:08;;;;;;;7.87;1.90;;;6.80;99.90;;;;;;4990688;28;20053;-70
2021/04/24 05:22:38;;;;;;;4.43;2.00;;;6.80;99.90;;;;;;4989665;28;20142;-70
2021/04/24 05:25:08;;;;;;;7.80;2.00;;;6.90;99.90;;;;;;4989986;28;20042;-70
2021/04/24 05:27:36;;;;;;;7.03;2.30;;;6.90;99.90;;;;;;4989836;28;20054;-70
2021/04/24 05:30:06;;;;;;;4.27;1.83;;;6.90;99.90;;;;;;4990325;28;20018;-70
2021/04/24 05:32:34;;;;;;;5.33;1.83;;;7.00;99.90;;;;;;4989859;28;20056;-70
2021/04/24 05:34:59;;;;;;;4.73;2.57;;;7.00;99.90;;;;;;4988792;28;20034;-70
2021/04/24 05:37:25;;;;;;;3.83;1.70;;;7.10;99.90;;;;;;4976023;28;20030;-70
2021/04/24 05:39:53;;;;;;;8.77;2.37;;;7.10;99.90;;;;;;4990043;28;20378;-70
2021/04/24 05:42:20;;;;;;;5.17;1.57;;;7.20;99.90;;;;;;4990307;28;20038;-70
2021/04/24 05:44:48;;;;;;;3.30;1.23;;;7.20;99.50;;;;;;4989054;28;20359;-70
2021/04/24 05:47:17;;;;;;;5.27;1.50;;;7.20;99.30;;;;;;4988983;28;20145;-71
2021/04/24 05:49:42;;;;;;;4.67;1.70;;;7.30;99.50;;;;;;4989809;28;20036;-70
2021/04/24 05:52:10;;;;;;;4.77;1.70;;;7.20;98.60;;;;;;4988854;28;20031;-70
2021/04/24 05:54:36;;;;;;;3.37;1.23;;;7.40;98.60;;;;;;4989092;28;20034;-70
2021/04/24 05:57:02;;;;;;;3.33;1.67;;;7.40;98.40;;;;;;4974684;28;20041;-70
2021/04/24 05:59:27;;;;;;;6.40;1.57;;;7.40;98.20;;;;;;4989281;28;20649;-70
2021/04/24 06:01:53;;;;;;;6.43;1.20;;;7.50;98.00;;;;;;4989066;28;20481;-70
2021/04/24 06:04:21;;;;;;;2.93;1.30;;;7.50;97.30;;;;;;4988650;28;20351;-70
2021/04/24 06:06:46;;;;;;;4.10;1.97;;;7.60;96.90;;;;;;4988743;28;20129;-70
2021/04/24 06:09:12;;;;;;;4.67;1.73;;;7.70;97.30;;;;;;4989452;28;20761;-70
2021/04/24 06:11:40;;;;;;;3.07;1.10;;;7.80;97.40;;;;;;4989727;28;20036;-70
2021/04/24 06:14:08;;;;;;;2.97;1.57;;;7.90;96.40;;;;;;4987991;28;20034;-71
2021/04/24 06:16:34;;;;;;;4.60;1.63;;;8.10;95.80;;;;;;4980615;28;20029;-71
2021/04/24 06:18:59;;;;;;;2.00;1.13;;;8.20;95.30;;;;;;4989942;28;20501;-70
2021/04/24 06:21:25;;;;;;;4.67;1.93;;;8.30;95.30;;;;;;4989301;28;20045;-70
2021/04/24 06:23:54;;;;;;;2.97;0.97;;;8.50;95.20;;;;;;4989587;28;20064;-70
2021/04/24 06:26:21;;;;;;;3.93;1.40;;;8.50;94.10;;;;;;4988271;28;20042;-70
2021/04/24 06:28:47;;;;;;;4.80;1.63;;;8.50;94.80;;;;;;4989755;28;20058;-70
2021/04/24 06:31:13;;;;;;;6.00;2.20;;;8.60;94.10;;;;;;4989633;28;20022;-70
2021/04/24 06:33:38;;;;;;;6.27;1.30;;;8.60;93.20;;;;;;4991504;28;20026;-70
2021/04/24 06:36:05;;;;;;;4.83;1.13;;;8.50;93.70;;;;;;4992380;28;21883;-70
2021/04/24 06:38:30;;;;;;;2.80;1.33;;;8.60;92.50;;;;;;4992532;28;20117;-70
2021/04/24 06:40:56;;;;;;;5.17;0.80;;;8.50;90.50;;;;;;4992542;28;20030;-70
2021/04/24 06:43:22;;;;;;;2.43;1.00;;;8.30;90.90;;;;;;4991511;28;20460;-69
2021/04/24 06:45:49;;;;;;;4.23;1.10;;;8.40;91.70;;;;;;4993105;28;20062;-71
2021/04/24 06:48:15;;;;;;;5.90;2.10;;;8.60;91.80;;;;;;4975480;28;20030;-70
2021/04/24 06:50:41;;;;;;;2.87;0.87;;;8.60;90.60;;;;;;4992991;28;20030;-70
2021/04/24 06:53:06;;;;;;;4.97;1.20;;;8.80;90.10;;;;;;4993417;28;20494;-71
2021/04/24 06:55:32;;;;;;;1.73;0.87;;;8.90;88.40;;;;;;4974241;28;20042;-70
2021/04/24 06:57:58;;;;;;;1.83;0.80;;;8.90;86.40;;;;;;4991720;28;20412;-70
2021/04/24 07:00:27;;;;;;;1.63;0.80;;;8.80;85.80;;;;;;4992096;28;20042;-70
2021/04/24 07:02:52;;;;;;;5.80;1.23;;;8.80;86.80;;;;;;4990791;28;20605;-70
2021/04/24 07:05:20;;;;;;;1.50;0.90;;;9.00;85.10;;;;;;4982629;28;20042;-70
2021/04/24 07:07:46;;;;;;;3.07;0.83;;;9.00;84.10;;;;;;4983245;28;20079;-70
2021/04/24 07:10:12;;;;;;;3.13;1.33;;;9.00;85.00;;;;;;4992653;28;20417;-70
2021/04/24 07:12:41;;;;;;;3.83;0.70;;;9.00;83.90;;;;;;4978553;28;20036;-70
2021/04/24 07:15:08;;;;;;;1.93;1.03;;;9.10;81.10;;;;;;4991828;28;20042;-70
2021/04/24 07:17:35;;;;;;;3.97;1.57;;;9.20;82.30;;;;;;4983648;28;20049;-70
2021/04/24 07:20:01;;;;;;;2.47;1.10;;;9.40;81.80;;;;;;4992597;28;20133;-71
2021/04/24 07:22:26;;;;;;;2.00;1.10;;;9.50;80.30;;;;;;4992381;28;20030;-70
2021/04/24 07:24:52;;;;;;;4.93;1.67;;;9.40;80.60;;;;;;4991620;28;20038;-70
2021/04/24 07:27:18;;;;;;;4.43;1.30;;;9.50;83.90;;;;;;4991975;28;21864;-70
2021/04/24 07:29:43;;;;;;;3.57;1.33;;;9.50;84.00;;;;;;4974587;28;20851;-70
2021/04/24 07:32:11;;;;;;;3.87;1.50;;;9.70;83.30;;;;;;4978128;28;20191;-70
2021/04/24 07:34:38;;;;;;;12.37;1.63;;;9.70;83.40;;;;;;4992506;28;20038;-70
2021/04/24 07:37:06;;;;;;;3.70;1.43;;;9.80;84.50;;;;;;4991791;28;20635;-70
2021/04/24 07:39:31;;;;;;;4.87;1.23;;;10.10;82.00;;;;;;4992391;28;20042;-71
2021/04/24 07:42:02;;;;;;;3.20;1.43;;;10.20;77.20;;;;;;4991754;28;20185;-70
2021/04/24 07:44:28;;;;;;;3.77;1.27;;;10.30;74.90;;;;;;4988534;28;20362;-71
2021/04/24 07:46:54;;;;;;;1.17;0.70;;;10.40;73.50;;;;;;4990508;28;20060;-70
2021/04/24 07:49:20;;;;;;;1.43;0.77;;;10.20;71.70;;;;;;4990833;28;20048;-70
2021/04/24 07:51:46;;;;;;;1.77;0.80;;;10.20;72.60;;;;;;4991868;28;20405;-71
2021/04/24 07:54:14;;;;;;;6.07;1.17;;;10.20;72.90;;;;;;4990884;28;20037;-70
2021/04/24 07:56:41;;;;;;;2.13;1.30;;;10.20;73.00;;;;;;4974650;28;20354;-70
2021/04/24 07:59:10;;;;;;;6.57;1.00;;;10.20;73.60;;;;;;4991532;28;20036;-69
2021/04/24 08:01:39;;;;;;;2.17;0.97;;;10.20;74.00;;;;;;4977208;28;20034;-70
2021/04/24 08:04:07;;;;;;;2.53;0.80;;;10.30;72.80;;;;;;4990601;28;20037;-70
2021/04/24 08:06:34;;;;;;;3.50;1.27;;;10.30;72.80;;;;;;4991269;28;20078;-71
2021/04/24 08:08:59;;;;;;;1.47;0.50;;;10.30;73.90;;;;;;4991861;28;20076;-70
2021/04/24 08:11:29;;;;;;;1.80;0.50;;;10.30;72.20;;;;;;4990917;28;20118;-71
2021/04/24 08:13:55;;;;;;;5.60;1.00;;;10.30;71.70;;;;;;4973011;28;20030;-70
2021/04/24 08:16:21;;;;;;;2.20;1.20;;;10.50;70.50;;;;;;4991062;28;20041;-70
2021/04/24 08:18:46;;;;;;;1.30;0.53;;;10.50;69.70;;;;;;4990575;28;20060;-70
2021/04/24 08:21:12;;;;;;;1.53;0.60;;;10.50;69.20;;;;;;4991032;28;20058;-69
2021/04/24 08:23:38;;;;;;;1.80;0.80;;;10.60;69.40;;;;;;4974250;28;20069;-70
2021/04/24 08:26:04;;;;;;;1.00;0.47;;;10.60;68.80;;;;;;4989450;28;20033;-69
2021/04/24 08:28:34;;;;;;;1.83;0.90;;;10.70;67.60;;;;;;4990823;28;20038;-69
2021/04/24 08:31:02;;;;;;;4.40;1.13;;;10.90;69.60;;;;;;4989684;28;20447;-69
2021/04/24 08:33:28;;;;;;;2.87;0.47;;;10.90;64.60;;;;;;4989854;28;20121;-70
2021/04/24 08:35:54;;;;;;;1.97;0.80;;;10.80;65.10;;;;;;4973387;28;20662;-70
2021/04/24 08:38:20;;;;;;;3.63;1.10;;;10.70;65.30;;;;;;4990602;28;20038;-70
2021/04/24 08:40:46;;;;;;;0.77;0.47;;;10.80;65.60;;;;;;4990333;28;20105;-70
2021/04/24 08:43:15;;;;;;;3.00;0.73;;;10.80;66.00;;;;;;4990898;28;20152;-71
2021/04/24 08:45:45;;;;;;;2.10;0.80;;;10.90;66.30;;;;;;4990231;28;20038;-70
2021/04/24 08:48:11;;;;;;;4.33;0.97;;;11.00;66.70;;;;;;4973367;28;20026;-70
2021/04/24 08:50:37;;;;;;;2.10;0.77;;;10.90;64.50;;;;;;4977660;28;20026;-71
2021/04/24 08:53:06;;;;;;;0.97;0.43;;;10.80;65.00;;;;;;4989509;28;20060;-70
2021/04/24 08:55:38;;;;;;;3.30;0.50;;;10.90;65.80;;;;;;4989726;28;20366;-70
2021/04/24 08:58:06;;;;;;;1.73;0.80;;;11.00;65.70;;;;;;4991216;28;20128;-70
2021/04/24 09:00:37;;;;;;;1.90;0.77;;;11.00;67.30;;;;;;4989692;28;20054;-71
2021/04/24 09:03:09;;;;;;;0.87;0.60;;;10.90;64.00;;;;;;4990302;28;20030;-70
2021/04/24 09:05:36;;;;;;;3.08;0.70;;;11.00;64.10;;;;;;4990929;28;20395;-70
2021/04/24 09:08:04;;;;;;;1.30;0.50;;;11.10;63.30;;;;;;4973258;28;20034;-71
2021/04/24 09:10:44;;;;;;;1.90;0.90;;;11.20;63.90;;;;;;4989752;28;20026;-71
2021/04/24 09:13:15;;;;;;;6.00;1.10;;;11.10;64.40;;;;;;4980996;28;20115;-70
2021/04/24 09:15:41;;;;;;;4.23;0.80;;;11.10;63.20;;;;;;4974550;28;20034;-71
2021/04/24 09:18:12;;;;;;;2.60;0.90;;;11.20;63.70;;;;;;4990247;28;20053;-71
2021/04/24 09:20:52;;;;;;;4.57;1.00;;;11.40;63.90;;;;;;4989667;28;20030;-70
2021/04/24 09:23:25;;;;;;;2.77;1.00;;;11.50;62.70;;;;;;4990509;28;20466;-70
2021/04/24 09:25:58;;;;;;;;;;;11.60;60.90;;;;;;4991007;28;20463;-70
2021/04/24 09:28:43;;;;;;;2.30;0.90;;;11.60;63.10;;;;;;4976697;28;19929;-70
2021/04/24 09:31:15;;;;;;;4.67;1.10;;;11.60;62.70;;;;;;4988107;28;20125;-70
2021/04/24 09:33:41;;;;;;;4.13;1.00;;;11.70;63.30;;;;;;4990048;28;20026;-69
2021/04/24 09:36:09;;;;;;;3.97;1.07;;;11.80;63.10;;;;;;4972361;28;20125;-69
2021/04/24 09:38:41;;;;;;;3.50;1.03;;;11.80;63.30;;;;;;4989362;28;20029;-68
2021/04/24 09:41:18;;;;;;;2.80;1.13;;;12.00;64.00;;;;;;4972419;28;20690;-68
2021/04/24 09:44:08;;;;;;;2.57;1.17;;;11.90;62.70;;;;;;4989672;28;20104;-68
2021/04/24 09:46:56;;;;;;;4.87;1.67;;;11.80;64.30;;;;;;4989497;28;20035;-69
2021/04/24 09:49:28;;;;;;;3.20;1.30;;;11.80;64.90;;;;;;4971669;28;20022;-68
2021/04/24 09:52:09;;;;;;;1.87;1.13;;;11.90;62.90;;;;;;4989893;28;20038;-69
2021/04/24 09:54:36;;;;;;;3.03;0.90;;;12.10;62.00;;;;;;4989475;28;20030;-67
2021/04/24 09:57:15;;;;;;;3.23;1.03;;;12.20;60.60;;;;;;4988033;28;20026;-68
2021/04/24 09:59:57;;;;;;;4.37;1.17;;;12.10;62.50;;;;;;4988098;28;20097;-67
2021/04/24 10:02:43;;;;;;;3.63;1.35;;;12.10;61.90;;;;;;4971616;28;20030;-69
2021/04/24 10:05:12;;;;;;;5.77;1.10;;;12.00;62.80;;;;;;4988722;28;20030;-68
2021/04/24 10:07:42;;;;;;;2.47;1.07;;;11.90;62.10;;;;;;4990486;28;20105;-68
2021/04/24 10:10:10;;;;;;;2.13;1.00;;;11.90;63.10;;;;;;4992949;28;20406;-69
2021/04/24 10:12:36;;;;;;;3.60;1.00;;;12.00;63.80;;;;;;4975853;28;20486;-68
2021/04/24 10:15:03;;;;;;;3.70;1.13;;;12.30;62.40;;;;;;4976069;28;20030;-68
2021/04/24 10:17:29;;;;;;;3.07;1.70;;;12.40;60.60;;;;;;4993401;28;20087;-68
2021/04/24 10:19:55;;;;;;;4.60;1.20;;;12.40;60.30;;;;;;4980314;28;21872;-69
2021/04/24 10:22:24;;;;;;;2.03;0.73;;;12.40;59.80;;;;;;4992990;28;20033;-68
2021/04/24 10:24:51;;;;;;;1.63;0.83;;;12.60;59.90;;;;;;4975964;28;20049;-68
2021/04/24 10:27:18;;;;;;;3.90;1.57;;;12.70;60.90;;;;;;4993627;28;20042;-68
2021/04/24 10:29:46;;;;;;;2.77;1.20;;;12.80;60.20;;;;;;4992931;28;20026;-68
2021/04/24 10:32:12;;;;;;;4.30;1.50;;;12.60;58.90;;;;;;4993169;28;20037;-68
2021/04/24 10:34:41;;;;;;;2.43;1.13;;;12.40;60.20;;;;;;4992187;28;20103;-69
2021/04/24 10:37:10;;;;;;;3.33;1.23;;;12.40;61.60;;;;;;4979430;28;20030;-68
2021/04/24 10:39:41;;;;;;;2.47;1.10;;;12.70;61.60;;;;;;4992676;28;20037;-68
2021/04/24 10:42:22;;;;;;;4.93;1.40;;;12.90;61.00;;;;;;4992885;28;20481;-68
2021/04/24 10:44:57;;;;;;;3.63;0.80;;;13.00;61.90;;;;;;4992017;28;20095;-68
2021/04/24 10:47:37;;;;;;;2.33;1.13;;;13.10;60.90;;;;;;4993023;28;20180;-68
2021/04/24 10:50:06;;;;;;;3.40;1.53;;;13.00;61.30;;;;;;4992605;28;20037;-68
2021/04/24 10:52:34;;;;;;;2.23;0.90;;;13.10;61.30;;;;;;4993123;28;20486;-69
2021/04/24 10:55:12;;;;;;;3.37;1.30;;;13.30;59.70;;;;;;4974549;28;20030;-69
2021/04/24 10:57:38;;;;;;;3.80;1.43;;;13.50;59.30;;;;;;4993077;28;20044;-68
2021/04/24 11:00:27;;;;;;;2.07;1.23;;;13.60;58.60;;;;;;4992006;28;20026;-68
2021/04/24 11:02:54;;;;;;;2.40;1.00;;;13.60;57.80;;;;;;4939364;28;20041;-68
2021/04/24 11:05:48;;;;;;;3.63;1.30;;;13.60;57.40;;;;;;4992730;28;20073;-68
2021/04/24 11:08:20;;;;;;;4.00;1.20;;;13.70;56.30;;;;;;4992391;28;20054;-68
2021/04/24 11:10:54;;;;;;;2.83;1.20;;;13.80;57.70;;;;;;4974650;28;20026;-68
2021/04/24 11:13:22;;;;;;;5.37;1.30;;;13.90;56.30;;;;;;4992560;28;20101;-69
2021/04/24 11:15:48;;;;;;;3.63;1.30;;;13.90;55.60;;;;;;4991544;28;20069;-68
2021/04/24 11:18:16;;;;;;;5.70;1.60;;;14.10;55.40;;;;;;4991597;28;20054;-69
2021/04/24 11:20:55;;;;;;;3.40;1.10;;;14.20;55.20;;;;;;4991934;28;20108;-69
2021/04/24 11:23:32;;;;;;;3.00;1.40;;;14.50;56.50;;;;;;4991609;28;20054;-70
2021/04/24 11:26:02;;;;;;;2.33;1.30;;;14.50;54.10;;;;;;4992010;28;20107;-69
2021/04/24 11:28:34;;;;;;;3.50;1.20;;;14.50;55.30;;;;;;4991183;28;20089;-69
2021/04/24 11:31:09;;;;;;;2.55;1.20;;;14.60;55.40;;;;;;4991669;28;20034;-69
2021/04/24 11:34:01;;;;;;;1.97;1.23;;;14.80;55.20;;;;;;4991539;28;20030;-69
2021/04/24 11:36:31;;;;;;;3.23;1.07;;;14.80;53.50;;;;;;4989188;28;20089;-69
2021/04/24 11:39:00;;;;;;;3.23;1.00;;;15.00;53.30;;;;;;4990931;28;21008;-68
2021/04/24 11:41:41;;;;;;;1.27;0.70;;;15.00;52.60;;;;;;4974184;28;20022;-69
2021/04/24 11:44:21;;;;;;;6.20;1.23;;;15.20;52.40;;;;;;4974505;28;20034;-68
2021/04/24 11:46:57;;;;;;;3.03;1.13;;;15.50;53.50;;;;;;4975229;28;20391;-68
2021/04/24 11:49:25;;;;;;;2.97;1.13;;;15.30;50.80;;;;;;4990903;28;20452;-68
2021/04/24 11:52:10;;;;;;;2.93;1.10;;;15.20;51.40;;;;;;4991970;28;20083;-68
2021/04/24 11:54:44;;;;;;;2.83;0.80;;;15.40;50.40;;;;;;4990341;28;20034;-68
2021/04/24 11:57:16;;;;;;;3.40;0.90;;;15.70;49.80;;;;;;4990335;28;20415;-68
2021/04/24 11:59:43;;;;;;;2.75;0.82;;;15.70;48.40;;;;;;4989689;28;20080;-68
2021/04/24 12:02:27;;;;;;;2.57;1.07;;;15.60;49.30;;;;;;4990195;28;20026;-68
2021/04/24 12:05:00;;;;;;;4.27;1.80;;;;;;;;;;4991645;28;20433;-70
2021/04/24 12:07:26;;;;;;;2.93;1.37;;;16.50;49.30;;;;;;4961524;28;20097;-68
2021/04/24 12:09:56;;;;;;;2.80;1.37;;;17.00;49.10;;;;;;4991343;28;20040;-68
2021/04/24 12:12:36;;;;;;;4.33;1.33;;;16.60;47.70;;;;;;4990773;28;20030;-68
2021/04/24 12:15:07;;;;;;;5.30;1.77;;;16.90;48.40;;;;;;4992424;28;20034;-68
2021/04/24 12:17:33;;;;;;;7.73;1.40;;;17.30;47.80;;;;;;4991231;28;20431;-69
2021/04/24 12:19:59;;;;;;;6.43;1.03;;;17.60;47.70;;;;;;4990770;28;20463;-68
2021/04/24 12:22:27;;;;;;;3.60;1.00;;;17.80;46.80;;;;;;4991593;28;20050;-69
2021/04/24 12:24:59;;;;;;;2.03;1.33;;;18.00;46.20;;;;;;4990707;28;20034;-67
2021/04/24 12:27:52;;;;;;;6.20;1.40;;;18.00;45.80;;;;;;4990749;28;20085;-68
2021/04/24 12:30:21;;;;;;;2.90;1.37;;;18.20;44.30;;;;;;4990275;28;20112;-68
2021/04/24 12:32:55;;;;;;;1.23;0.90;;;18.00;43.50;;;;;;4989996;28;20022;-68
2021/04/24 12:35:26;;;;;;;2.45;1.33;;;18.90;43.40;;;;;;4990655;28;20145;-69
2021/04/24 12:38:04;;;;;;;2.40;1.20;;;19.70;42.80;;;;;;4990880;28;20505;-68
2021/04/24 12:40:32;;;;;;;5.55;1.45;;;20.60;41.50;;;;;;4989661;28;20618;-68
2021/04/24 12:43:04;;;;;;;3.90;1.75;;;20.60;41.10;;;;;;4991049;28;20046;-68
2021/04/24 12:45:31;;;;;;;3.28;1.35;;;20.80;41.10;;;;;;4991481;28;20060;-69
2021/04/24 12:47:59;;;;;;;2.45;1.10;;;21.10;41.10;;;;;;4982104;28;20055;-68
2021/04/24 12:50:32;;;;;;;3.35;1.25;;;21.50;39.70;;;;;;4972779;28;20034;-69
2021/04/24 12:53:03;;;;;;;4.20;1.17;;;21.50;39.50;;;;;;4990059;28;20522;-72
2021/04/24 12:55:39;;;;;;;3.78;1.08;;;22.20;38.60;;;;;;4989569;28;20042;-70
2021/04/24 12:58:09;;;;;;;3.00;1.45;;;22.10;38.00;;;;;;4990300;28;20049;-71
2021/04/24 13:00:48;;;;;;;4.10;1.00;;;22.80;38.40;;;;;;4990262;28;20069;-72